Time;durP1;ratioP1;P1;durP2;ratioP2;P2;SDS_P1;SDS_P2;PMS_P1;PMS_P2;Temp;Humidity;BMP_temperature;BMP_pressure;BME280_temperature;BME280_humidity;BME280_pressure;Samples;Min_cycle;Max_cycle;Signal;HPM_P1;HPM_P2
2020/12/04 00:01:17;;;;;;;52.30;21.33;;;0.00;99.90;;;;;;5072032;28;20016;-79
2020/12/04 00:03:42;;;;;;;42.10;20.73;;;0.10;99.90;;;;;;5072004;28;20028;-79
2020/12/04 00:06:08;;;;;;;41.15;19.58;;;0.20;99.90;;;;;;5073379;28;20024;-79
2020/12/04 00:08:34;;;;;;;46.35;19.65;;;0.20;99.90;;;;;;5072067;28;20555;-79
2020/12/04 00:10:59;;;;;;;41.42;19.08;;;0.30;99.90;;;;;;5072046;28;20024;-79
2020/12/04 00:13:25;;;;;;;41.92;19.38;;;0.40;99.90;;;;;;5071724;28;20381;-79
2020/12/04 00:15:51;;;;;;;41.60;18.80;;;0.30;99.90;;;;;;5073265;28;20501;-79
2020/12/04 00:18:16;;;;;;;45.40;19.70;;;0.40;99.90;;;;;;5072501;28;20108;-79
2020/12/04 00:20:42;;;;;;;42.97;18.90;;;0.40;99.90;;;;;;5073200;28;20476;-79
2020/12/04 00:23:07;;;;;;;47.42;19.98;;;0.40;99.90;;;;;;5071053;28;20031;-79
2020/12/04 00:25:33;;;;;;;37.67;16.80;;;0.40;99.90;;;;;;5073218;28;20027;-80
2020/12/04 00:27:58;;;;;;;45.75;18.75;;;0.40;99.90;;;;;;5072744;28;20362;-79
2020/12/04 00:30:24;;;;;;;47.40;20.95;;;0.40;99.90;;;;;;5071616;28;20119;-79
2020/12/04 00:32:50;;;;;;;39.65;18.67;;;0.40;99.90;;;;;;5070878;28;20024;-79
2020/12/04 00:35:15;;;;;;;39.83;17.52;;;0.40;99.90;;;;;;5072979;28;20052;-79
2020/12/04 00:37:41;;;;;;;44.60;18.83;;;0.40;99.90;;;;;;5072958;28;20048;-79
2020/12/04 00:40:07;;;;;;;37.78;18.02;;;0.30;99.90;;;;;;5072954;28;20095;-79
2020/12/04 00:42:32;;;;;;;41.42;17.38;;;0.30;99.90;;;;;;5071671;28;20109;-79
2020/12/04 00:44:58;;;;;;;45.45;19.75;;;0.20;99.90;;;;;;5072616;28;20375;-79
2020/12/04 00:47:23;;;;;;;36.15;18.73;;;0.20;99.90;;;;;;5072328;28;20035;-79
2020/12/04 00:49:49;;;;;;;36.80;18.15;;;0.20;99.90;;;;;;5072869;28;20024;-79
2020/12/04 00:52:15;;;;;;;37.63;18.17;;;0.10;99.90;;;;;;5072629;28;20032;-79
2020/12/04 00:54:40;;;;;;;33.40;17.77;;;0.10;99.90;;;;;;5071500;28;20131;-79
2020/12/04 00:57:07;;;;;;;46.78;20.17;;;0.10;99.90;;;;;;5072745;28;20028;-79
2020/12/04 00:59:33;;;;;;;42.70;18.25;;;0.10;99.90;;;;;;5072747;28;20024;-79
2020/12/04 01:01:58;;;;;;;41.53;18.70;;;0.10;99.90;;;;;;5072059;28;20028;-79
2020/12/04 01:04:24;;;;;;;35.35;18.02;;;0.10;99.90;;;;;;5071435;28;20037;-79
2020/12/04 01:06:49;;;;;;;34.53;17.23;;;0.10;99.90;;;;;;5071396;28;20032;-79
2020/12/04 01:09:15;;;;;;;38.17;17.90;;;0.10;99.90;;;;;;5072335;28;20040;-79
2020/12/04 01:11:41;;;;;;;39.42;18.27;;;0.10;99.90;;;;;;5071339;28;20033;-79
2020/12/04 01:14:06;;;;;;;33.80;16.02;;;0.10;99.90;;;;;;5072596;28;20385;-79
2020/12/04 01:16:32;;;;;;;36.97;17.02;;;0.10;99.90;;;;;;5071134;28;20115;-79
2020/12/04 01:18:57;;;;;;;35.38;16.08;;;0.10;99.90;;;;;;5070483;28;20028;-79
2020/12/04 01:21:23;;;;;;;40.33;18.50;;;0.10;99.90;;;;;;5072173;28;20036;-80
2020/12/04 01:23:52;;;;;;;34.83;15.80;;;0.10;99.90;;;;;;5072176;28;20040;-79
2020/12/04 01:26:20;;;;;;;35.63;15.45;;;0.00;99.90;;;;;;5072518;28;20446;-79
2020/12/04 01:28:46;;;;;;;36.45;17.50;;;0.00;99.90;;;;;;5072198;28;20478;-79
2020/12/04 01:31:11;;;;;;;43.47;17.60;;;0.00;99.90;;;;;;5072426;28;20028;-79
2020/12/04 01:33:37;;;;;;;35.45;15.98;;;-0.10;99.90;;;;;;5072174;28;20035;-80
2020/12/04 01:36:04;;;;;;;36.88;17.58;;;-0.10;99.90;;;;;;5070589;28;20028;-79
2020/12/04 01:38:29;;;;;;;38.50;16.08;;;-0.10;99.90;;;;;;5072483;28;20073;-80
2020/12/04 01:41:00;;;;;;;37.97;16.92;;;-0.10;99.90;;;;;;5072325;28;20087;-79
2020/12/04 01:43:26;;;;;;;38.88;17.42;;;-0.10;99.90;;;;;;5070914;28;20040;-79
2020/12/04 01:45:52;;;;;;;38.28;18.80;;;-0.10;99.90;;;;;;5070852;28;20035;-79
2020/12/04 01:48:18;;;;;;;32.10;15.68;;;-0.10;99.90;;;;;;5070875;28;20025;-79
2020/12/04 01:50:43;;;;;;;39.97;17.15;;;-0.10;99.90;;;;;;5075643;28;20386;-79
2020/12/04 01:53:09;;;;;;;32.60;16.08;;;-0.10;99.90;;;;;;5075859;28;20505;-79
2020/12/04 01:55:35;;;;;;;37.60;17.13;;;-0.10;99.90;;;;;;5075888;28;20021;-79
2020/12/04 01:58:03;;;;;;;33.17;14.55;;;0.00;99.90;;;;;;5074202;28;20020;-79
2020/12/04 02:00:28;;;;;;;35.45;15.25;;;-0.10;99.90;;;;;;5074488;28;20062;-79
2020/12/04 02:02:54;;;;;;;32.22;15.27;;;0.00;99.90;;;;;;5075190;28;20041;-79
2020/12/04 02:05:20;;;;;;;35.13;16.48;;;0.00;99.90;;;;;;5075229;28;20417;-79
2020/12/04 02:07:45;;;;;;;34.85;15.98;;;0.00;99.90;;;;;;5075615;28;20036;-79
2020/12/04 02:10:20;;;;;;;32.55;14.00;;;0.00;99.90;;;;;;5074410;28;20025;-79
2020/12/04 02:12:48;;;;;;;31.67;14.10;;;0.10;99.90;;;;;;5075601;28;20040;-79
2020/12/04 02:15:15;;;;;;;38.50;14.77;;;0.00;99.90;;;;;;5075515;28;20025;-79
2020/12/04 02:17:41;;;;;;;31.02;15.48;;;0.00;99.90;;;;;;5073843;28;20024;-79
2020/12/04 02:20:10;;;;;;;28.48;15.15;;;0.10;99.90;;;;;;5075289;28;20070;-79
2020/12/04 02:22:37;;;;;;;35.83;15.82;;;0.10;99.90;;;;;;5073127;28;20028;-80
2020/12/04 02:25:08;;;;;;;28.60;13.45;;;0.10;99.90;;;;;;5074955;28;20032;-79
2020/12/04 02:27:43;;;;;;;30.77;14.52;;;0.10;99.90;;;;;;5073755;28;20021;-79
2020/12/04 02:30:10;;;;;;;25.85;13.80;;;0.20;99.90;;;;;;5075128;28;20036;-79
2020/12/04 02:32:36;;;;;;;21.80;11.55;;;0.20;99.90;;;;;;5075088;28;20012;-79
2020/12/04 02:35:02;;;;;;;31.70;12.88;;;0.30;99.90;;;;;;5075246;28;20035;-79
2020/12/04 02:37:28;;;;;;;29.23;13.52;;;0.30;99.90;;;;;;5073786;28;20125;-79
2020/12/04 02:39:54;;;;;;;31.23;13.15;;;0.40;99.90;;;;;;5073804;28;20028;-79
2020/12/04 02:42:20;;;;;;;28.70;13.38;;;0.50;99.90;;;;;;5073812;28;20020;-79
2020/12/04 02:44:45;;;;;;;30.17;13.18;;;0.50;99.90;;;;;;5074819;28;20040;-79
2020/12/04 02:47:11;;;;;;;28.98;14.13;;;0.50;99.90;;;;;;5074860;28;20031;-79
2020/12/04 02:49:36;;;;;;;20.90;12.27;;;0.50;99.90;;;;;;5073649;28;20020;-79
2020/12/04 02:52:02;;;;;;;26.00;12.73;;;0.50;99.90;;;;;;5073287;28;20063;-79
2020/12/04 02:54:28;;;;;;;29.02;12.00;;;0.40;99.90;;;;;;5074843;28;20033;-79
2020/12/04 02:56:53;;;;;;;26.38;13.07;;;0.40;99.90;;;;;;5073195;28;20064;-79
2020/12/04 02:59:19;;;;;;;27.10;11.98;;;0.30;99.90;;;;;;5074549;28;20028;-79
2020/12/04 03:01:45;;;;;;;23.10;11.40;;;0.30;99.90;;;;;;5072311;28;20021;-80
2020/12/04 03:04:10;;;;;;;26.90;12.35;;;0.40;99.90;;;;;;5072111;28;20094;-79
2020/12/04 03:06:36;;;;;;;23.98;11.77;;;0.40;99.90;;;;;;5073270;28;20025;-79
2020/12/04 03:09:03;;;;;;;24.10;11.23;;;0.40;99.90;;;;;;5074386;28;20109;-79
2020/12/04 03:11:28;;;;;;;17.88;10.07;;;0.50;99.90;;;;;;5073184;28;20059;-79
2020/12/04 03:13:54;;;;;;;26.73;12.60;;;0.50;99.90;;;;;;5073181;28;20413;-79
2020/12/04 03:16:19;;;;;;;20.95;10.18;;;0.50;99.90;;;;;;5072894;28;20118;-79
2020/12/04 03:18:45;;;;;;;25.80;12.65;;;0.50;99.90;;;;;;5074308;28;20029;-79
2020/12/04 03:21:11;;;;;;;25.10;13.07;;;0.50;99.90;;;;;;5072918;28;20430;-79
2020/12/04 03:23:36;;;;;;;28.80;13.52;;;0.40;99.90;;;;;;5073943;28;20158;-79
2020/12/04 03:26:02;;;;;;;27.67;12.35;;;0.40;99.90;;;;;;5074013;28;20020;-79
2020/12/04 03:28:28;;;;;;;23.42;10.27;;;0.40;99.90;;;;;;5074112;28;20020;-79
2020/12/04 03:30:53;;;;;;;23.70;11.95;;;0.50;99.90;;;;;;5074059;28;20028;-79
2020/12/04 03:33:20;;;;;;;23.92;11.10;;;0.60;99.90;;;;;;5073924;28;20071;-79
2020/12/04 03:35:45;;;;;;;26.30;11.25;;;0.60;99.90;;;;;;5072329;28;20013;-79
2020/12/04 03:38:11;;;;;;;20.88;10.50;;;0.70;99.90;;;;;;5072659;28;20112;-79
2020/12/04 03:40:37;;;;;;;18.73;9.50;;;0.70;99.90;;;;;;5072695;28;20021;-79
2020/12/04 03:43:02;;;;;;;20.10;10.40;;;0.70;99.90;;;;;;5072434;28;20115;-79
2020/12/04 03:45:28;;;;;;;17.92;9.65;;;0.70;99.90;;;;;;5073830;28;20028;-79
2020/12/04 03:47:54;;;;;;;19.33;9.73;;;0.70;99.90;;;;;;5073194;28;20025;-79
2020/12/04 03:50:19;;;;;;;22.55;9.85;;;0.70;99.90;;;;;;5073736;28;20122;-79
2020/12/04 03:52:45;;;;;;;25.92;11.38;;;0.80;99.90;;;;;;5072052;28;20032;-79
2020/12/04 03:55:11;;;;;;;18.83;10.13;;;0.70;99.90;;;;;;5072460;28;20065;-79
2020/12/04 03:57:36;;;;;;;20.55;10.48;;;0.70;99.90;;;;;;5072302;28;20035;-79
2020/12/04 04:00:04;;;;;;;20.38;11.50;;;0.60;99.90;;;;;;5073566;28;20102;-79
2020/12/04 04:02:30;;;;;;;23.55;10.48;;;0.60;99.90;;;;;;5071815;28;20158;-80
2020/12/04 04:04:56;;;;;;;18.38;10.50;;;0.60;99.90;;;;;;5073275;28;20115;-79
2020/12/04 04:07:21;;;;;;;19.27;10.35;;;0.50;99.90;;;;;;5072084;28;20374;-79
2020/12/04 04:09:47;;;;;;;19.17;9.60;;;0.50;99.90;;;;;;5072234;28;20035;-79
2020/12/04 04:12:13;;;;;;;18.10;10.45;;;0.40;99.90;;;;;;5073062;28;20478;-80
2020/12/04 04:14:38;;;;;;;21.08;9.75;;;0.40;99.90;;;;;;5073313;28;20024;-79
2020/12/04 04:17:04;;;;;;;18.45;9.57;;;0.30;99.90;;;;;;5073404;28;20457;-79
2020/12/04 04:19:30;;;;;;;17.63;10.15;;;0.30;99.90;;;;;;5071418;28;20024;-79
2020/12/04 04:21:55;;;;;;;18.42;9.48;;;0.30;99.90;;;;;;5073082;28;20025;-79
2020/12/04 04:24:22;;;;;;;17.23;11.10;;;0.20;99.90;;;;;;5073111;28;20028;-79
2020/12/04 04:26:49;;;;;;;20.88;11.05;;;0.30;99.90;;;;;;5073049;28;20028;-79
2020/12/04 04:29:14;;;;;;;21.42;10.52;;;0.30;99.90;;;;;;5071776;28;20025;-79
2020/12/04 04:31:40;;;;;;;18.45;10.23;;;0.30;99.90;;;;;;5071540;28;20074;-79
2020/12/04 04:34:06;;;;;;;20.15;10.07;;;0.30;99.90;;;;;;5073016;28;20035;-79
2020/12/04 04:36:32;;;;;;;24.92;10.50;;;0.40;99.90;;;;;;5073037;28;20028;-79
2020/12/04 04:38:57;;;;;;;23.92;11.00;;;0.40;99.90;;;;;;5072734;28;20099;-79
2020/12/04 04:41:23;;;;;;;23.50;10.68;;;0.40;99.90;;;;;;5072951;28;20094;-79
2020/12/04 04:43:49;;;;;;;19.65;9.52;;;0.30;99.90;;;;;;5072843;28;20425;-79
2020/12/04 04:46:36;;;;;;;18.42;8.68;;;0.30;99.90;;;;;;5072664;28;20064;-79
2020/12/04 04:49:09;;;;;;;19.23;9.63;;;0.20;99.90;;;;;;5072109;28;20045;-79
2020/12/04 04:51:38;;;;;;;19.75;9.57;;;0.20;99.90;;;;;;5071409;28;20020;-79
2020/12/04 04:54:04;;;;;;;21.45;10.07;;;0.30;99.90;;;;;;5072846;28;20020;-79
2020/12/04 04:56:30;;;;;;;17.05;9.35;;;0.40;99.90;;;;;;5071484;28;20043;-79
2020/12/04 04:58:55;;;;;;;20.60;10.43;;;0.40;99.90;;;;;;5071495;28;20063;-79
2020/12/04 05:01:21;;;;;;;20.15;10.30;;;0.40;99.90;;;;;;5070877;28;20047;-79
2020/12/04 05:03:57;;;;;;;22.75;10.32;;;0.40;99.90;;;;;;5071363;28;20043;-79
2020/12/04 05:06:36;;;;;;;24.60;11.27;;;0.40;99.90;;;;;;5072664;28;20351;-79
2020/12/04 05:09:04;;;;;;;22.70;10.55;;;0.40;99.90;;;;;;5071156;28;20532;-79
2020/12/04 05:11:31;;;;;;;24.50;10.30;;;0.50;99.90;;;;;;5072670;28;20478;-79
2020/12/04 05:14:14;;;;;;;23.42;13.55;;;0.50;99.90;;;;;;5072573;28;20359;-79
2020/12/04 05:16:42;;;;;;;24.40;10.90;;;0.60;99.90;;;;;;5072578;28;20013;-79
2020/12/04 05:19:08;;;;;;;26.27;12.60;;;0.60;99.90;;;;;;5070476;28;20033;-79
2020/12/04 05:21:33;;;;;;;19.25;10.30;;;0.60;99.90;;;;;;5071524;28;20031;-79
2020/12/04 05:24:00;;;;;;;19.60;9.30;;;0.50;99.90;;;;;;5071913;28;20048;-79
2020/12/04 05:26:37;;;;;;;18.15;11.02;;;0.50;99.90;;;;;;5076505;28;20035;-79
2020/12/04 05:29:05;;;;;;;20.15;9.43;;;0.60;99.90;;;;;;5074648;28;20048;-79
2020/12/04 05:31:33;;;;;;;14.55;8.38;;;0.70;99.90;;;;;;5075122;28;20584;-80
2020/12/04 05:34:00;;;;;;;19.00;11.07;;;0.70;99.90;;;;;;5076324;28;20103;-79
2020/12/04 05:36:27;;;;;;;21.90;10.38;;;0.80;99.90;;;;;;5075662;28;20154;-80
2020/12/04 05:38:55;;;;;;;16.85;10.27;;;0.90;99.90;;;;;;5074934;28;20032;-79
2020/12/04 05:41:21;;;;;;;23.70;11.02;;;0.90;99.90;;;;;;5075951;28;20071;-79
2020/12/04 05:43:48;;;;;;;20.20;9.80;;;0.90;99.90;;;;;;5074706;28;20040;-79
2020/12/04 05:46:21;;;;;;;21.45;10.68;;;0.90;99.90;;;;;;5074875;28;20013;-79
2020/12/04 05:49:00;;;;;;;21.80;10.88;;;0.80;99.90;;;;;;5074628;28;20033;-79
2020/12/04 05:51:28;;;;;;;18.75;10.95;;;0.80;99.90;;;;;;5075533;28;20017;-79
2020/12/04 05:53:54;;;;;;;31.40;10.32;;;0.70;99.90;;;;;;5054722;28;20112;-79
2020/12/04 05:56:20;;;;;;;18.38;9.52;;;0.70;99.90;;;;;;5062340;28;20565;-79
2020/12/04 05:58:48;;;;;;;19.98;9.63;;;0.70;99.90;;;;;;5073780;28;20036;-79
2020/12/04 06:01:20;;;;;;;19.27;10.43;;;0.70;99.90;;;;;;5074208;28;20025;-79
2020/12/04 06:03:54;;;;;;;24.55;12.43;;;0.80;99.90;;;;;;5068764;28;20028;-79
2020/12/04 06:06:31;;;;;;;24.10;11.05;;;0.80;99.90;;;;;;5073348;28;20029;-79
2020/12/04 06:09:05;;;;;;;22.17;11.60;;;0.80;99.90;;;;;;5069154;28;20029;-79
2020/12/04 06:11:34;;;;;;;28.92;12.90;;;0.80;99.90;;;;;;5071937;28;20108;-79
2020/12/04 06:14:00;;;;;;;24.23;12.75;;;0.70;99.90;;;;;;5073393;28;20021;-79
2020/12/04 06:16:26;;;;;;;29.33;13.50;;;0.70;99.90;;;;;;5071149;28;20029;-79
2020/12/04 06:18:52;;;;;;;28.42;12.68;;;0.70;99.90;;;;;;5064448;28;20086;-79
2020/12/04 06:21:43;;;;;;;30.85;13.45;;;0.70;99.90;;;;;;5057017;28;20112;-79
2020/12/04 06:24:09;;;;;;;27.90;13.63;;;0.60;99.90;;;;;;5069120;28;20494;-79
2020/12/04 06:26:49;;;;;;;27.90;13.35;;;0.60;99.90;;;;;;5057142;28;20024;-79
2020/12/04 06:29:15;;;;;;;27.95;12.18;;;0.60;99.90;;;;;;5075112;28;20058;-79
2020/12/04 06:31:41;;;;;;;27.13;14.30;;;0.60;99.90;;;;;;5073509;28;20034;-79
2020/12/04 06:34:17;;;;;;;27.52;13.10;;;0.70;99.90;;;;;;5073056;28;20020;-79
2020/12/04 06:36:44;;;;;;;22.90;12.07;;;0.70;99.90;;;;;;5076363;28;20417;-80
2020/12/04 06:39:30;;;;;;;20.50;10.38;;;0.80;99.90;;;;;;5074923;28;20025;-80
2020/12/04 06:41:56;;;;;;;27.15;12.95;;;0.90;99.90;;;;;;5074918;28;20013;-79
2020/12/04 06:44:24;;;;;;;27.88;13.30;;;1.00;99.90;;;;;;5074645;28;20028;-79
2020/12/04 06:46:58;;;;;;;23.90;13.95;;;1.00;99.90;;;;;;5074366;28;20091;-79
2020/12/04 06:49:36;;;;;;;26.35;12.60;;;1.10;99.90;;;;;;5074623;28;20474;-79
2020/12/04 06:52:12;;;;;;;33.30;13.60;;;1.20;99.90;;;;;;5073159;28;20504;-80
2020/12/04 06:54:40;;;;;;;29.42;14.50;;;1.20;99.90;;;;;;5073551;28;20025;-79
2020/12/04 06:57:07;;;;;;;34.85;15.63;;;1.30;99.90;;;;;;5072200;28;20039;-80
2020/12/04 06:59:41;;;;;;;34.42;16.65;;;1.30;99.90;;;;;;5067689;28;20038;-79
2020/12/04 07:02:17;;;;;;;32.03;16.17;;;1.40;99.90;;;;;;5069977;28;20025;-79
2020/12/04 07:04:54;;;;;;;39.40;19.05;;;1.40;99.90;;;;;;5066815;28;20140;-80
2020/12/04 07:07:21;;;;;;;33.80;16.48;;;1.50;99.90;;;;;;5066427;28;20036;-80
2020/12/04 07:10:01;;;;;;;32.10;15.30;;;1.50;99.90;;;;;;5070758;28;20107;-79
2020/12/04 07:12:28;;;;;;;30.48;15.00;;;1.50;99.90;;;;;;5069699;28;20021;-80
2020/12/04 07:14:56;;;;;;;28.45;14.23;;;1.60;99.90;;;;;;5073746;28;20024;-78
2020/12/04 07:17:27;;;;;;;28.48;13.48;;;1.50;99.90;;;;;;5074067;28;20481;-77
2020/12/04 07:19:54;;;;;;;25.70;12.23;;;1.50;99.90;;;;;;5073608;28;20102;-77
2020/12/04 07:22:22;;;;;;;25.98;12.77;;;1.50;99.90;;;;;;5073906;28;20028;-77
2020/12/04 07:24:49;;;;;;;26.25;11.93;;;1.50;99.90;;;;;;5071610;28;20029;-77
2020/12/04 07:27:17;;;;;;;25.17;12.57;;;1.60;99.90;;;;;;5070389;28;20024;-77
2020/12/04 07:29:44;;;;;;;21.35;10.85;;;1.60;99.90;;;;;;5068404;28;20082;-77
2020/12/04 07:32:10;;;;;;;23.08;10.88;;;1.60;99.90;;;;;;5067349;28;20035;-77
2020/12/04 07:34:37;;;;;;;22.02;10.90;;;1.70;99.90;;;;;;5069330;28;20099;-77
2020/12/04 07:37:06;;;;;;;19.58;10.43;;;1.70;99.90;;;;;;5068624;28;20529;-77
2020/12/04 07:39:37;;;;;;;20.30;11.05;;;1.70;99.90;;;;;;5069855;28;20043;-77
2020/12/04 07:42:07;;;;;;;22.02;9.80;;;1.70;99.90;;;;;;5072224;28;20025;-79
2020/12/04 07:44:45;;;;;;;23.77;11.57;;;1.80;99.90;;;;;;5067859;28;20080;-79
2020/12/04 07:47:15;;;;;;;23.58;11.15;;;1.80;99.90;;;;;;5064974;28;20478;-79
2020/12/04 07:49:51;;;;;;;22.77;11.32;;;1.90;99.90;;;;;;5069131;28;20032;-79
2020/12/04 07:52:23;;;;;;;20.80;11.27;;;1.90;99.90;;;;;;5067825;28;20028;-79
2020/12/04 07:55:04;;;;;;;18.92;10.38;;;2.00;99.90;;;;;;5066781;28;20024;-79
2020/12/04 07:57:54;;;;;;;21.25;9.85;;;2.00;99.90;;;;;;5066033;28;20031;-78
2020/12/04 08:00:20;;;;;;;20.98;10.93;;;2.10;99.90;;;;;;5067349;28;20048;-78
2020/12/04 08:02:46;;;;;;;21.30;9.77;;;2.10;99.90;;;;;;5068819;28;20077;-74
2020/12/04 08:05:22;;;;;;;30.50;12.70;;;2.20;99.90;;;;;;5069096;28;20119;-75
2020/12/04 08:07:52;;;;;;;21.10;9.95;;;2.20;99.90;;;;;;5066528;28;20047;-74
2020/12/04 08:10:20;;;;;;;22.15;10.45;;;2.30;99.90;;;;;;5069927;28;20024;-74
2020/12/04 08:12:49;;;;;;;22.40;10.57;;;2.30;99.90;;;;;;5070089;28;20089;-74
2020/12/04 08:15:19;;;;;;;27.52;11.90;;;2.30;99.90;;;;;;5068325;28;20485;-74
2020/12/04 08:17:45;;;;;;;24.45;11.50;;;2.30;99.90;;;;;;5069657;28;20413;-74
2020/12/04 08:20:18;;;;;;;21.77;11.07;;;2.40;99.90;;;;;;5069943;28;20029;-74
2020/12/04 08:22:50;;;;;;;22.58;11.10;;;2.40;99.90;;;;;;5068472;28;20045;-74
2020/12/04 08:25:26;;;;;;;20.63;10.13;;;2.40;99.90;;;;;;5069768;28;20047;-74
2020/12/04 08:27:53;;;;;;;19.77;10.80;;;2.40;99.90;;;;;;5068460;28;20110;-74
2020/12/04 08:30:21;;;;;;;20.35;11.50;;;2.50;99.90;;;;;;5073017;28;20043;-74
2020/12/04 08:32:59;;;;;;;21.60;11.18;;;2.50;99.90;;;;;;5072846;28;20024;-73
2020/12/04 08:35:32;;;;;;;27.08;12.70;;;2.50;99.90;;;;;;5072933;28;20028;-74
2020/12/04 08:38:11;;;;;;;;;;;2.60;99.90;;;;;;5073019;28;20390;-74
2020/12/04 08:40:39;;;;;;;21.10;10.77;;;2.60;99.90;;;;;;5071486;28;19908;-74
2020/12/04 08:43:22;;;;;;;20.40;11.27;;;2.70;99.90;;;;;;5067836;28;20496;-74
2020/12/04 08:45:50;;;;;;;;;;;2.80;99.90;;;;;;5070129;28;20037;-74
2020/12/04 08:48:21;;;;;;;18.60;10.70;;;2.80;99.90;;;;;;5067913;28;19919;-74
2020/12/04 08:50:56;;;;;;;23.40;11.32;;;2.80;99.90;;;;;;5066358;28;20679;-73
2020/12/04 08:53:23;;;;;;;23.15;12.25;;;2.80;99.90;;;;;;5067708;28;20381;-74
2020/12/04 08:55:54;;;;;;;24.20;10.38;;;2.90;99.90;;;;;;5051039;28;20035;-74
2020/12/04 08:58:21;;;;;;;20.25;13.15;;;2.90;99.90;;;;;;5069314;28;20020;-74
2020/12/04 09:00:49;;;;;;;25.10;13.55;;;3.00;99.90;;;;;;5071243;28;20020;-74
2020/12/04 09:03:16;;;;;;;29.02;12.35;;;3.00;99.90;;;;;;5070829;28;20052;-74
2020/12/04 09:05:42;;;;;;;29.85;13.18;;;3.00;99.90;;;;;;5070444;28;20051;-75
2020/12/04 09:08:09;;;;;;;20.35;10.23;;;3.00;99.90;;;;;;5071434;28;20530;-75
2020/12/04 09:10:36;;;;;;;23.45;10.85;;;3.00;99.90;;;;;;5070037;28;20481;-75
2020/12/04 09:13:03;;;;;;;24.95;12.02;;;3.00;99.90;;;;;;5071150;28;20028;-74
2020/12/04 09:15:29;;;;;;;22.08;11.95;;;3.10;99.90;;;;;;5068587;28;20023;-74
2020/12/04 09:17:56;;;;;;;24.98;13.45;;;3.20;99.90;;;;;;5069909;28;20021;-74
2020/12/04 09:20:24;;;;;;;23.90;11.23;;;3.20;99.90;;;;;;5069913;28;20043;-74
2020/12/04 09:22:50;;;;;;;24.45;10.82;;;3.20;99.90;;;;;;5068452;28;20478;-74
2020/12/04 09:25:16;;;;;;;24.42;12.65;;;3.30;99.90;;;;;;5071945;28;20037;-76
2020/12/04 09:27:43;;;;;;;23.83;12.82;;;3.30;99.90;;;;;;5072413;28;20494;-74
2020/12/04 09:30:11;;;;;;;22.73;11.43;;;3.40;99.90;;;;;;5072235;28;20048;-75
2020/12/04 09:32:37;;;;;;;24.45;11.85;;;3.50;99.90;;;;;;5072533;28;20024;-74
2020/12/04 09:35:04;;;;;;;21.52;12.95;;;3.50;99.90;;;;;;5072456;28;20081;-74
2020/12/04 09:37:31;;;;;;;29.83;13.57;;;3.60;99.90;;;;;;5072481;28;20016;-72
2020/12/04 09:40:01;;;;;;;20.33;10.95;;;3.60;99.90;;;;;;5072467;28;20056;-71
2020/12/04 09:42:27;;;;;;;26.42;12.90;;;3.70;99.90;;;;;;5072458;28;20427;-72
2020/12/04 09:44:55;;;;;;;21.58;11.32;;;3.80;99.90;;;;;;5072133;28;20095;-72
2020/12/04 09:47:22;;;;;;;25.65;12.60;;;3.80;99.90;;;;;;5071862;28;20386;-72
2020/12/04 09:49:49;;;;;;;19.67;10.75;;;3.90;99.90;;;;;;5070804;28;20031;-72
2020/12/04 09:52:16;;;;;;;26.27;12.57;;;3.90;99.90;;;;;;5070989;28;20024;-72
2020/12/04 09:54:44;;;;;;;23.63;12.38;;;4.00;99.90;;;;;;5072372;28;20032;-74
2020/12/04 09:57:13;;;;;;;25.10;12.25;;;4.10;99.90;;;;;;5072261;28;20104;-72
2020/12/04 09:59:39;;;;;;;24.85;11.10;;;4.40;99.90;;;;;;5072336;28;20052;-72
2020/12/04 10:02:06;;;;;;;25.90;12.38;;;4.60;99.90;;;;;;5071839;28;20894;-72
2020/12/04 10:04:33;;;;;;;25.10;10.90;;;4.80;99.90;;;;;;5072240;28;20223;-72
2020/12/04 10:06:59;;;;;;;19.67;10.35;;;5.00;99.90;;;;;;5070864;28;20534;-71
2020/12/04 10:09:27;;;;;;;25.33;11.23;;;5.10;99.90;;;;;;5070941;28;20071;-72
2020/12/04 10:11:53;;;;;;;24.25;11.25;;;5.20;99.40;;;;;;5075627;28;20493;-72
2020/12/04 10:14:19;;;;;;;21.90;11.52;;;5.40;99.30;;;;;;5075759;28;20029;-72
2020/12/04 10:16:46;;;;;;;23.95;12.10;;;5.30;98.80;;;;;;5075694;28;20052;-72
2020/12/04 10:19:13;;;;;;;18.35;9.73;;;5.40;98.50;;;;;;5075205;28;20033;-72
2020/12/04 10:21:40;;;;;;;19.02;9.77;;;5.30;97.20;;;;;;5073210;28;20021;-73
2020/12/04 10:24:06;;;;;;;16.70;10.48;;;5.30;97.30;;;;;;5074251;28;20470;-77
2020/12/04 10:26:40;;;;;;;20.67;10.02;;;5.30;98.50;;;;;;5073731;28;20021;-77
2020/12/04 10:29:07;;;;;;;15.80;9.70;;;5.40;98.40;;;;;;5070701;28;20017;-77
2020/12/04 10:31:33;;;;;;;23.17;11.60;;;5.50;98.50;;;;;;5071946;28;20024;-77
2020/12/04 10:34:00;;;;;;;20.95;10.73;;;5.60;97.00;;;;;;5070538;28;20112;-77
2020/12/04 10:36:26;;;;;;;21.55;10.55;;;5.70;96.00;;;;;;5071899;28;20396;-77
2020/12/04 10:38:53;;;;;;;21.58;9.65;;;5.70;96.10;;;;;;5069473;28;20078;-77
2020/12/04 10:41:20;;;;;;;19.48;10.88;;;5.80;95.00;;;;;;5070477;28;20434;-77
2020/12/04 10:43:46;;;;;;;18.80;10.05;;;5.90;94.10;;;;;;5072023;28;20042;-77
2020/12/04 10:46:12;;;;;;;15.60;9.43;;;6.00;94.50;;;;;;5071770;28;20039;-77
2020/12/04 10:48:38;;;;;;;20.30;9.63;;;6.10;93.40;;;;;;5070009;28;20032;-77
2020/12/04 10:51:03;;;;;;;17.80;9.18;;;6.30;93.00;;;;;;5070288;28;20020;-77
2020/12/04 10:53:29;;;;;;;15.23;8.82;;;6.40;91.20;;;;;;5071880;28;20035;-77
2020/12/04 10:55:55;;;;;;;15.02;8.13;;;6.40;91.00;;;;;;5070090;28;20048;-77
2020/12/04 10:58:20;;;;;;;16.85;8.75;;;6.40;89.50;;;;;;5071521;28;20386;-77
2020/12/04 11:00:50;;;;;;;14.73;8.27;;;6.40;90.00;;;;;;5071555;28;20033;-77
2020/12/04 11:05:44;;;;;;;13.35;8.05;;;6.30;90.10;;;;;;5070642;28;20135;-77
2020/12/04 11:08:10;;;;;;;15.48;7.80;;;6.30;90.80;;;;;;5069909;28;20023;-77
2020/12/04 11:10:36;;;;;;;17.20;9.40;;;6.30;90.80;;;;;;5070058;28;20025;-77
2020/12/04 11:13:05;;;;;;;17.45;8.98;;;6.20;90.80;;;;;;5070188;28;20024;-77
2020/12/04 11:15:31;;;;;;;17.15;9.93;;;6.20;90.30;;;;;;5068814;28;20025;-77
2020/12/04 11:17:57;;;;;;;18.25;8.27;;;6.30;90.50;;;;;;5071335;28;20020;-77
2020/12/04 11:20:24;;;;;;;13.27;7.70;;;6.30;90.30;;;;;;5073162;28;20386;-77
2020/12/04 11:22:51;;;;;;;14.60;8.00;;;6.40;89.80;;;;;;5072310;28;20055;-77
2020/12/04 11:25:17;;;;;;;15.38;7.85;;;6.40;89.50;;;;;;5071449;28;20066;-77
2020/12/04 11:27:47;;;;;;;16.48;8.15;;;6.50;89.60;;;;;;5072783;28;20027;-77
2020/12/04 11:30:14;;;;;;;19.10;8.75;;;6.50;89.60;;;;;;5072864;28;20060;-77
2020/12/04 11:32:41;;;;;;;15.88;9.75;;;6.60;89.10;;;;;;5071406;28;20114;-77
2020/12/04 11:35:08;;;;;;;13.43;8.18;;;6.60;90.10;;;;;;5073476;28;20017;-77
2020/12/04 11:37:43;;;;;;;15.52;8.35;;;6.70;87.20;;;;;;5072710;28;20020;-77
2020/12/04 11:40:10;;;;;;;16.48;8.80;;;6.70;87.80;;;;;;5073964;28;20024;-77
2020/12/04 11:42:40;;;;;;;17.90;8.55;;;6.80;88.40;;;;;;5073994;28;20032;-77
2020/12/04 11:45:08;;;;;;;12.52;7.57;;;6.80;86.50;;;;;;5072327;28;20025;-77
2020/12/04 11:47:37;;;;;;;13.38;7.55;;;6.80;86.40;;;;;;5072049;28;20057;-79
2020/12/04 11:50:07;;;;;;;12.82;7.80;;;6.90;85.80;;;;;;5071083;28;20055;-80
2020/12/04 11:52:33;;;;;;;12.63;7.63;;;7.00;85.70;;;;;;5070221;28;20043;-77
2020/12/04 11:54:58;;;;;;;11.40;6.43;;;7.10;84.50;;;;;;5072338;28;20489;-77
2020/12/04 11:57:24;;;;;;;14.18;8.05;;;7.10;84.20;;;;;;5070223;28;20447;-79
2020/12/04 11:59:50;;;;;;;16.73;9.35;;;7.20;83.50;;;;;;5070906;28;20401;-77
2020/12/04 12:02:17;;;;;;;15.80;8.20;;;7.20;82.70;;;;;;5072057;28;20498;-78
2020/12/04 12:04:42;;;;;;;18.92;9.05;;;7.20;84.30;;;;;;5071933;28;20037;-77
2020/12/04 12:07:08;;;;;;;14.95;7.72;;;7.20;83.90;;;;;;5071922;28;20557;-78
2020/12/04 12:09:33;;;;;;;20.17;8.50;;;7.20;82.00;;;;;;5070707;28;20023;-78
2020/12/04 12:11:59;;;;;;;14.98;8.32;;;7.10;83.10;;;;;;5070669;28;20017;-78
2020/12/04 12:14:25;;;;;;;14.57;8.02;;;7.10;82.20;;;;;;5070625;28;20021;-79
2020/12/04 12:16:50;;;;;;;14.77;8.10;;;7.00;82.50;;;;;;5070429;28;20028;-78
2020/12/04 12:19:16;;;;;;;14.25;8.00;;;7.00;82.80;;;;;;5073172;28;20466;-78
2020/12/04 12:21:47;;;;;;;13.68;7.28;;;7.00;82.60;;;;;;5071854;28;20086;-78
2020/12/04 12:24:12;;;;;;;11.57;7.35;;;7.00;82.70;;;;;;5073046;28;20037;-78
2020/12/04 12:26:38;;;;;;;16.08;7.68;;;7.10;82.40;;;;;;5071816;28;20439;-78
2020/12/04 12:29:04;;;;;;;13.13;7.40;;;7.10;81.60;;;;;;5071784;28;20021;-79
2020/12/04 12:31:29;;;;;;;15.07;8.85;;;7.10;81.20;;;;;;5072120;28;20016;-78
2020/12/04 12:33:56;;;;;;;22.67;9.52;;;7.10;81.80;;;;;;5071339;28;20027;-78
2020/12/04 12:36:25;;;;;;;13.20;8.18;;;7.10;81.60;;;;;;5071670;28;20031;-78
2020/12/04 12:38:52;;;;;;;15.45;9.60;;;7.00;81.10;;;;;;5071035;28;20054;-78
2020/12/04 12:41:18;;;;;;;15.55;8.35;;;7.00;82.10;;;;;;5072121;28;20386;-78
2020/12/04 12:43:44;;;;;;;15.27;8.45;;;6.90;83.00;;;;;;5071282;28;20036;-78
2020/12/04 12:46:10;;;;;;;14.90;8.45;;;6.90;82.30;;;;;;5070077;28;20020;-78